Warspite, Canada
Current Conditions -  °F | °C
As of 1:00 AM on Friday 24 Oct 2014 (Local Time) from CYED Reporting Station
Clear Clear  
Wind Chill:   Ceiling: Unl
Heat Index:   Visibility: 9mi
Dew Point: -1°   Wind: 12mph
Humidity: 61%   Direction: 300°WNW
Pressure: 29.6"   Gusts: 17mph
Location:  54.09°N, 112.62°W
Report Text: CYED 240700Z AUTO 30010G15KT 9SM CLR 06/M01 A2960 RMK SLP038
Loading
Personal Weather Stations






























Interactive Weather Map
Tropical Storm Tracking
New forecast layout! Learn more

10-Day Weather Forecast

Advertisements
Track Severe Weather on mobile